Time;durP1;ratioP1;P1;durP2;ratioP2;P2;SDS_P1;SDS_P2;PMS_P1;PMS_P2;Temp;Humidity;BMP_temperature;BMP_pressure;BME280_temperature;BME280_humidity;BME280_pressure;Samples;Min_cycle;Max_cycle;Signal;HPM_P1;HPM_P2
2021/07/14 00:01:34;;;;;;;5.25;2.70;;;15.50;1.00;;;;;;5009959;28;20044;-84
2021/07/14 00:03:59;;;;;;;2.75;2.45;;;15.50;1.00;;;;;;5010594;28;20030;-86
2021/07/14 00:06:25;;;;;;;4.07;2.58;;;15.60;1.00;;;;;;5008432;28;20041;-84
2021/07/14 00:08:51;;;;;;;4.10;2.60;;;15.60;1.00;;;;;;5010811;28;20045;-84
2021/07/14 00:11:17;;;;;;;4.57;2.97;;;15.50;1.00;;;;;;5011476;28;20498;-84
2021/07/14 00:14:00;;;;;;;6.43;2.60;;;15.40;1.00;;;;;;5011927;28;20032;-84
2021/07/14 00:22:09;;;;;;;6.55;2.92;;;15.70;1.00;;;;;;5008858;28;20180;-84
2021/07/14 00:24:35;;;;;;;5.15;3.15;;;15.70;1.00;;;;;;5010808;28;20029;-84
2021/07/14 00:27:04;;;;;;;6.18;3.00;;;15.60;1.00;;;;;;5010454;28;20476;-83
2021/07/14 00:29:30;;;;;;;4.95;2.95;;;15.70;1.00;;;;;;5009775;28;20083;-84
2021/07/14 00:31:56;;;;;;;3.03;2.72;;;15.70;1.00;;;;;;5012537;28;20121;-84
2021/07/14 00:34:21;;;;;;;7.53;3.08;;;15.80;1.00;;;;;;5009821;28;20109;-84
2021/07/14 00:36:47;;;;;;;5.28;2.80;;;15.70;1.00;;;;;;5007559;28;20432;-84
2021/07/14 00:39:12;;;;;;;8.43;3.20;;;15.70;1.00;;;;;;5008732;28;20554;-84
2021/07/14 00:41:38;;;;;;;4.07;2.72;;;15.60;1.00;;;;;;5010107;28;20045;-84
2021/07/14 00:44:04;;;;;;;6.47;2.92;;;15.70;1.00;;;;;;5012509;28;20030;-84
2021/07/14 00:46:30;;;;;;;8.13;3.38;;;15.70;1.00;;;;;;5009955;28;20101;-84
2021/07/14 00:48:58;;;;;;;3.72;2.72;;;15.80;1.00;;;;;;5009008;28;20029;-84
2021/07/14 00:51:25;;;;;;;4.85;2.75;;;15.90;1.00;;;;;;5010642;28;20014;-84
2021/07/14 00:53:51;;;;;;;3.58;3.08;;;15.80;1.00;;;;;;5010045;28;20026;-84
2021/07/14 00:56:17;;;;;;;4.65;2.88;;;15.70;1.00;;;;;;5010513;28;20014;-83
2021/07/14 00:58:43;;;;;;;3.38;2.80;;;15.80;1.00;;;;;;5011461;28;20025;-84
2021/07/14 01:01:09;;;;;;;4.55;2.90;;;15.70;1.00;;;;;;5009891;28;20490;-86
2021/07/14 01:04:01;;;;;;;5.95;3.17;;;15.60;1.00;;;;;;5008130;28;20030;-85
2021/07/14 01:06:45;;;;;;;7.60;3.28;;;15.60;1.00;;;;;;5009591;28;20481;-83
2021/07/14 01:09:13;;;;;;;6.07;3.17;;;15.60;1.00;;;;;;5010024;28;20046;-83
2021/07/14 01:11:40;;;;;;;4.65;2.95;;;15.50;1.00;;;;;;5008491;28;20034;-84
2021/07/14 01:14:23;;;;;;;5.97;2.92;;;15.50;1.00;;;;;;5011470;28;20549;-84
2021/07/14 01:17:05;;;;;;;4.28;2.92;;;15.40;1.00;;;;;;5011009;28;20030;-84
2021/07/14 01:20:08;;;;;;;6.65;3.17;;;15.30;1.00;;;;;;5006439;28;20509;-84
2021/07/14 01:22:52;;;;;;;6.90;3.80;;;15.30;1.00;;;;;;5009581;28;20080;-84
2021/07/14 01:25:49;;;;;;;5.88;2.95;;;15.20;1.00;;;;;;5009600;28;20030;-84
2021/07/14 01:28:16;;;;;;;4.82;3.10;;;15.00;1.00;;;;;;5009221;28;20127;-84
2021/07/14 01:30:44;;;;;;;6.75;2.92;;;14.90;1.00;;;;;;5009312;28;20025;-84
2021/07/14 01:33:11;;;;;;;8.05;3.45;;;14.90;1.00;;;;;;5008334;28;20125;-84
2021/07/14 01:35:41;;;;;;;4.05;3.17;;;14.90;1.00;;;;;;5009919;28;20033;-84
2021/07/14 01:38:10;;;;;;;7.18;3.22;;;14.80;1.00;;;;;;5010855;28;20067;-83
2021/07/14 01:40:37;;;;;;;4.35;3.33;;;14.70;1.00;;;;;;5008867;28;20177;-83
2021/07/14 01:43:04;;;;;;;8.20;3.63;;;14.60;1.00;;;;;;5011827;28;20029;-84
2021/07/14 01:45:33;;;;;;;8.32;3.10;;;14.60;1.00;;;;;;5013082;28;20057;-84
2021/07/14 01:48:03;;;;;;;8.60;3.50;;;14.60;1.00;;;;;;5012925;28;20105;-84
2021/07/14 01:50:31;;;;;;;9.15;3.80;;;14.60;1.00;;;;;;5014387;28;20057;-84
2021/07/14 01:52:57;;;;;;;5.28;3.63;;;14.60;1.00;;;;;;5014356;28;20044;-84
2021/07/14 01:55:24;;;;;;;6.38;3.97;;;14.60;1.00;;;;;;5011840;28;20037;-85
2021/07/14 01:57:52;;;;;;;8.88;4.25;;;14.60;1.00;;;;;;5014216;28;20014;-85
2021/07/14 02:00:19;;;;;;;5.55;3.75;;;14.50;1.00;;;;;;5012737;28;20895;-85
2021/07/14 02:03:01;;;;;;;7.75;3.75;;;14.60;1.00;;;;;;5012976;28;20030;-85
2021/07/14 02:05:27;;;;;;;6.50;3.70;;;14.50;1.00;;;;;;5012928;28;20158;-85
2021/07/14 02:07:52;;;;;;;4.60;4.00;;;14.60;1.00;;;;;;4997652;28;20113;-84
2021/07/14 02:10:18;;;;;;;9.77;3.80;;;14.60;1.00;;;;;;5011569;28;20454;-84
2021/07/14 02:12:47;;;;;;;7.63;3.72;;;14.70;1.00;;;;;;5012635;28;20080;-84
2021/07/14 02:15:12;;;;;;;6.15;3.65;;;14.70;1.00;;;;;;5012455;28;20076;-85
2021/07/14 02:17:54;;;;;;;7.68;3.88;;;14.80;1.00;;;;;;4993556;28;20525;-84
2021/07/14 02:20:21;;;;;;;10.65;3.75;;;14.80;1.00;;;;;;5013280;28;20040;-84
2021/07/14 02:22:48;;;;;;;5.53;3.97;;;15.30;1.00;;;;;;5012730;28;20486;-85
2021/07/14 02:25:14;;;;;;;9.50;3.80;;;14.90;1.00;;;;;;4995311;28;20033;-85
2021/07/14 02:27:40;;;;;;;5.30;4.03;;;15.00;1.00;;;;;;5010237;28;20037;-84
2021/07/14 02:30:21;;;;;;;7.90;3.97;;;15.10;1.00;;;;;;5012605;28;20472;-85
2021/07/14 02:32:50;;;;;;;8.40;4.15;;;15.20;1.00;;;;;;5007489;28;20490;-85
2021/07/14 02:35:17;;;;;;;4.35;3.40;;;15.50;1.00;;;;;;4996612;28;20485;-85
2021/07/14 02:37:46;;;;;;;5.70;3.65;;;15.20;1.00;;;;;;5012077;28;20030;-85
2021/07/14 02:40:15;;;;;;;5.28;3.80;;;15.10;1.00;;;;;;5012071;28;20524;-85
2021/07/14 02:42:41;;;;;;;5.80;3.92;;;15.00;1.00;;;;;;5009946;28;20014;-85
2021/07/14 02:45:08;;;;;;;4.97;3.78;;;15.00;1.00;;;;;;4988859;28;20030;-85
2021/07/14 02:47:37;;;;;;;7.10;4.10;;;14.90;1.00;;;;;;5012033;28;20031;-85
2021/07/14 02:50:30;;;;;;;6.20;4.03;;;14.90;1.00;;;;;;5010848;28;20022;-84
2021/07/14 02:53:04;;;;;;;5.82;4.25;;;14.90;1.00;;;;;;5005660;28;20049;-85
2021/07/14 02:55:33;;;;;;;7.85;3.55;;;15.10;1.00;;;;;;5011885;28;20036;-85
2021/07/14 02:58:00;;;;;;;5.32;3.70;;;14.90;1.00;;;;;;5011437;28;20030;-85
2021/07/14 03:00:28;;;;;;;7.68;4.05;;;14.80;1.00;;;;;;5012118;28;20444;-85
2021/07/14 03:02:55;;;;;;;6.35;3.97;;;14.80;1.00;;;;;;5010637;28;20113;-85
2021/07/14 03:05:21;;;;;;;6.22;4.22;;;14.80;1.00;;;;;;5012262;28;20025;-85
2021/07/14 03:07:48;;;;;;;6.30;3.78;;;14.70;1.00;;;;;;5010767;28;20030;-85
2021/07/14 03:10:17;;;;;;;8.65;4.10;;;14.80;1.00;;;;;;5011652;28;20061;-85
2021/07/14 03:12:45;;;;;;;8.10;3.63;;;14.80;1.00;;;;;;5008499;28;20018;-85
2021/07/14 03:15:11;;;;;;;7.53;3.25;;;14.70;1.00;;;;;;5010701;28;20025;-84
2021/07/14 03:17:39;;;;;;;6.85;3.40;;;14.70;1.00;;;;;;5011617;28;20510;-85
2021/07/14 03:20:08;;;;;;;6.60;3.50;;;14.60;1.00;;;;;;5014360;28;20113;-85
2021/07/14 03:22:36;;;;;;;5.50;3.33;;;14.70;1.00;;;;;;5010057;28;20119;-85
2021/07/14 03:25:04;;;;;;;5.40;3.15;;;14.60;1.00;;;;;;5011291;28;20425;-85
2021/07/14 03:27:30;;;;;;;6.20;3.60;;;14.60;1.00;;;;;;5010886;28;20546;-85
2021/07/14 03:29:58;;;;;;;7.78;3.33;;;14.50;1.00;;;;;;5013048;28;20108;-84
2021/07/14 03:32:24;;;;;;;9.95;3.78;;;14.50;1.00;;;;;;5010415;28;20030;-85
2021/07/14 03:34:52;;;;;;;6.97;3.50;;;14.40;1.00;;;;;;5013739;28;20499;-85
2021/07/14 03:37:19;;;;;;;9.40;3.47;;;14.40;1.00;;;;;;5011573;28;20040;-85
2021/07/14 03:39:47;;;;;;;3.47;3.17;;;14.40;1.00;;;;;;5010920;28;20030;-85
2021/07/14 03:42:15;;;;;;;6.15;3.38;;;14.40;1.00;;;;;;5008010;28;20026;-85
2021/07/14 03:44:44;;;;;;;4.03;3.42;;;14.40;1.00;;;;;;5012234;28;20517;-85
2021/07/14 03:47:10;;;;;;;8.02;3.70;;;14.30;1.00;;;;;;5011254;28;20026;-85
2021/07/14 03:49:38;;;;;;;5.40;3.63;;;14.30;1.00;;;;;;5012163;28;20034;-85
2021/07/14 03:52:04;;;;;;;4.10;3.08;;;14.30;1.00;;;;;;5009469;28;20030;-85
2021/07/14 03:54:31;;;;;;;5.72;3.42;;;14.30;1.00;;;;;;5008341;28;20100;-85
2021/07/14 03:56:58;;;;;;;4.80;3.50;;;14.30;1.00;;;;;;5010954;28;20044;-84
2021/07/14 03:59:24;;;;;;;6.30;3.78;;;14.30;1.00;;;;;;5011154;28;20029;-85
2021/07/14 04:01:51;;;;;;;9.57;3.90;;;14.60;1.00;;;;;;5011782;28;20033;-85
2021/07/14 04:04:17;;;;;;;8.45;3.67;;;14.30;1.00;;;;;;5011161;28;20086;-85
2021/07/14 04:06:48;;;;;;;6.38;3.90;;;14.20;1.00;;;;;;5010976;28;20050;-85
2021/07/14 04:09:17;;;;;;;4.07;3.53;;;14.20;1.00;;;;;;5011007;28;20080;-85
2021/07/14 04:11:44;;;;;;;5.30;3.95;;;14.20;1.00;;;;;;5009349;28;20022;-86
2021/07/14 04:14:10;;;;;;;8.15;4.03;;;14.30;1.00;;;;;;5011637;28;20049;-85
2021/07/14 04:16:36;;;;;;;6.82;3.83;;;14.40;1.00;;;;;;5011806;28;20034;-85
2021/07/14 04:19:02;;;;;;;5.63;4.13;;;14.40;1.00;;;;;;5010624;28;20049;-85
2021/07/14 04:21:28;;;;;;;6.70;3.63;;;14.80;1.00;;;;;;5010817;28;20041;-85
2021/07/14 04:23:55;;;;;;;6.47;3.17;;;14.40;1.00;;;;;;5008763;28;20486;-85
2021/07/14 04:26:21;;;;;;;9.43;3.22;;;14.50;1.00;;;;;;5009981;28;20034;-85
2021/07/14 04:28:47;;;;;;;5.38;2.90;;;14.50;1.00;;;;;;5011629;28;20033;-85
2021/07/14 04:31:12;;;;;;;5.88;2.58;;;14.50;1.00;;;;;;5010208;28;20038;-84
2021/07/14 04:33:41;;;;;;;10.40;3.10;;;14.60;1.00;;;;;;5008916;28;20018;-85
2021/07/14 04:36:07;;;;;;;4.70;2.78;;;14.50;1.00;;;;;;5010280;28;20029;-84
2021/07/14 04:38:33;;;;;;;6.97;3.08;;;14.50;1.00;;;;;;5008900;28;20057;-85
2021/07/14 04:40:58;;;;;;;3.78;3.03;;;14.50;1.00;;;;;;5012037;28;20042;-84
2021/07/14 04:43:24;;;;;;;5.60;3.20;;;14.90;1.00;;;;;;4991499;28;20038;-84
2021/07/14 04:45:50;;;;;;;5.75;3.00;;;14.70;1.00;;;;;;5010519;28;20323;-84
2021/07/14 04:48:15;;;;;;;5.35;3.20;;;14.80;1.00;;;;;;5009836;28;20520;-84
2021/07/14 04:50:41;;;;;;;8.80;3.75;;;14.90;1.00;;;;;;5010827;28;20061;-85
2021/07/14 04:53:06;;;;;;;9.60;3.60;;;14.90;1.00;;;;;;4994800;28;20044;-84
2021/07/14 04:55:32;;;;;;;4.30;3.47;;;15.00;1.00;;;;;;5008458;28;20061;-84
2021/07/14 04:57:58;;;;;;;6.40;3.10;;;15.00;1.00;;;;;;5009015;28;20068;-85
2021/07/14 05:00:23;;;;;;;7.55;3.03;;;15.10;1.00;;;;;;5009863;28;20045;-85
2021/07/14 05:02:49;;;;;;;5.00;3.17;;;15.20;1.00;;;;;;5008891;28;20022;-85
2021/07/14 05:05:16;;;;;;;4.80;2.80;;;15.30;1.00;;;;;;5011688;28;20112;-84
2021/07/14 05:07:44;;;;;;;4.80;2.70;;;15.40;1.00;;;;;;5042746;22;20058;-82
2021/07/14 05:10:10;;;;;;;4.78;2.60;;;15.40;1.00;;;;;;5026396;28;20029;-82
2021/07/14 05:12:36;;;;;;;7.03;2.42;;;15.40;1.00;;;;;;5028661;28;20048;-82
2021/07/14 05:15:02;;;;;;;6.68;2.40;;;15.40;1.00;;;;;;5029323;28;20481;-82
2021/07/14 05:17:28;;;;;;;4.97;2.75;;;15.40;1.00;;;;;;5028131;28;20076;-82
2021/07/14 05:19:54;;;;;;;5.65;2.45;;;15.40;1.00;;;;;;5031780;28;20085;-82
2021/07/14 05:22:21;;;;;;;4.90;2.00;;;15.50;1.00;;;;;;5029064;28;20033;-82
2021/07/14 05:24:47;;;;;;;3.78;2.22;;;15.60;1.00;;;;;;5029276;28;20515;-82
2021/07/14 05:27:12;;;;;;;4.07;2.10;;;15.60;1.00;;;;;;5029428;28;20026;-82
2021/07/14 05:29:38;;;;;;;3.88;2.13;;;15.70;1.00;;;;;;5027565;28;20037;-82
2021/07/14 05:32:05;;;;;;;4.05;1.77;;;15.70;1.00;;;;;;5031467;28;20021;-82
2021/07/14 05:34:32;;;;;;;2.92;2.00;;;15.70;1.00;;;;;;5030069;28;20034;-82
2021/07/14 05:36:58;;;;;;;4.07;2.10;;;15.70;1.00;;;;;;5029002;28;20109;-83
2021/07/14 05:39:24;;;;;;;3.10;1.77;;;15.80;1.00;;;;;;5027461;28;20109;-83
2021/07/14 05:41:50;;;;;;;2.30;1.95;;;15.90;1.00;;;;;;5029362;28;20434;-82
2021/07/14 05:44:16;;;;;;;6.30;2.03;;;15.90;1.00;;;;;;5028659;28;20029;-84
2021/07/14 05:46:45;;;;;;;4.30;2.05;;;16.00;1.00;;;;;;5030237;28;20498;-84
2021/07/14 05:49:11;;;;;;;4.82;2.03;;;16.00;1.00;;;;;;5027370;28;20018;-86
2021/07/14 05:51:37;;;;;;;6.15;2.33;;;16.10;1.00;;;;;;5028251;28;20064;-85
2021/07/14 05:54:03;;;;;;;8.20;2.50;;;16.30;1.00;;;;;;5027195;28;20080;-85
2021/07/14 05:56:29;;;;;;;3.15;2.10;;;16.40;1.00;;;;;;5029336;28;20435;-85
2021/07/14 05:58:55;;;;;;;3.60;1.77;;;16.40;1.00;;;;;;5028486;28;20068;-85
2021/07/14 06:01:21;;;;;;;4.20;1.95;;;16.50;1.00;;;;;;5029275;28;20038;-85
2021/07/14 06:03:47;;;;;;;2.88;1.98;;;16.50;1.00;;;;;;5029160;28;20063;-85
2021/07/14 06:06:14;;;;;;;4.85;2.20;;;16.50;1.00;;;;;;5028447;28;20044;-84
2021/07/14 06:08:40;;;;;;;3.88;2.35;;;16.60;1.00;;;;;;5028533;28;20092;-84
2021/07/14 06:11:06;;;;;;;3.17;2.25;;;16.60;1.00;;;;;;5031578;28;20486;-87
2021/07/14 06:13:32;;;;;;;4.95;1.88;;;16.70;1.00;;;;;;5024471;28;20029;-84
2021/07/14 06:15:57;;;;;;;4.47;1.90;;;16.60;1.00;;;;;;5029241;28;20021;-84
2021/07/14 06:18:23;;;;;;;2.10;1.90;;;16.60;1.00;;;;;;5027558;28;20030;-84
2021/07/14 06:20:49;;;;;;;5.50;2.08;;;16.70;1.00;;;;;;5028595;28;20049;-83
2021/07/14 06:23:14;;;;;;;3.55;2.13;;;16.70;1.00;;;;;;5028783;28;20505;-83
2021/07/14 06:25:40;;;;;;;2.90;1.98;;;16.80;1.00;;;;;;5030056;28;20489;-84
2021/07/14 06:28:07;;;;;;;6.35;2.50;;;16.80;1.00;;;;;;5027901;28;20060;-82
2021/07/14 06:30:34;;;;;;;5.15;2.03;;;16.90;1.00;;;;;;5030818;28;20048;-82
2021/07/14 06:32:59;;;;;;;3.95;1.77;;;16.90;1.00;;;;;;5031911;28;20041;-83
2021/07/14 06:35:25;;;;;;;7.30;2.20;;;16.90;1.00;;;;;;5032324;28;20029;-84
2021/07/14 06:37:52;;;;;;;3.60;1.90;;;16.80;1.00;;;;;;5034030;28;20030;-84
2021/07/14 06:40:18;;;;;;;8.63;2.33;;;16.80;1.00;;;;;;5032405;28;20055;-84
2021/07/14 06:42:43;;;;;;;5.78;2.10;;;16.70;1.00;;;;;;5030018;28;20025;-83
2021/07/14 06:45:11;;;;;;;2.67;2.00;;;16.80;1.00;;;;;;5032442;28;20071;-84
2021/07/14 06:47:37;;;;;;;4.68;1.80;;;16.70;1.00;;;;;;5016919;28;20032;-84
2021/07/14 06:50:05;;;;;;;5.68;1.85;;;16.70;1.00;;;;;;5033142;28;20108;-83
2021/07/14 06:52:30;;;;;;;4.38;3.47;;;16.50;1.00;;;;;;5031115;28;20124;-84
2021/07/14 06:54:56;;;;;;;6.53;3.40;;;16.50;1.00;;;;;;5031420;28;20100;-83
2021/07/14 06:57:25;;;;;;;4.95;3.28;;;16.30;1.00;;;;;;5032259;28;20034;-83
2021/07/14 06:59:51;;;;;;;5.13;3.70;;;16.30;1.00;;;;;;5031728;28;20452;-83
2021/07/14 07:02:17;;;;;;;4.85;3.88;;;16.30;1.00;;;;;;5032424;28;20084;-82
2021/07/14 07:04:42;;;;;;;9.50;4.20;;;16.40;1.00;;;;;;5030812;28;20036;-82
2021/07/14 07:07:08;;;;;;;5.03;3.67;;;16.50;1.00;;;;;;5029459;28;20049;-82
2021/07/14 07:09:33;;;;;;;7.45;3.15;;;16.40;1.00;;;;;;5028133;28;20022;-84
2021/07/14 07:11:59;;;;;;;4.00;2.90;;;16.50;1.00;;;;;;5031581;28;20037;-83
2021/07/14 07:14:25;;;;;;;5.00;3.10;;;16.50;1.00;;;;;;5031517;28;20021;-83
2021/07/14 07:16:51;;;;;;;3.47;3.15;;;16.40;1.00;;;;;;5031749;28;20844;-84
2021/07/14 07:19:16;;;;;;;4.22;3.03;;;16.40;1.00;;;;;;5030270;28;20068;-84
2021/07/14 07:21:43;;;;;;;3.67;2.83;;;16.30;1.00;;;;;;5031210;28;20048;-84
2021/07/14 07:24:08;;;;;;;2.75;2.15;;;16.20;1.00;;;;;;5031842;28;20082;-84
2021/07/14 07:26:34;;;;;;;4.03;2.30;;;16.10;1.00;;;;;;5030988;28;20104;-84
2021/07/14 07:29:08;;;;;;;3.25;2.35;;;16.20;1.00;;;;;;5029669;28;20049;-83
2021/07/14 07:31:34;;;;;;;2.60;2.17;;;16.30;1.00;;;;;;5031318;28;20025;-83
2021/07/14 07:34:00;;;;;;;2.58;1.98;;;16.30;1.00;;;;;;5030717;28;20047;-84
2021/07/14 07:36:27;;;;;;;2.47;1.83;;;16.40;1.00;;;;;;5031289;28;20029;-83
2021/07/14 07:38:53;;;;;;;2.28;1.80;;;16.00;1.00;;;;;;5030976;28;20005;-84
2021/07/14 07:41:21;;;;;;;5.45;2.10;;;16.00;1.00;;;;;;5032033;28;20037;-87
2021/07/14 07:43:47;;;;;;;4.05;2.20;;;16.20;1.00;;;;;;5032521;28;20409;-87
2021/07/14 07:46:13;;;;;;;3.53;2.15;;;16.40;1.00;;;;;;5029551;28;20021;-82
2021/07/14 07:48:39;;;;;;;4.32;1.90;;;16.10;1.00;;;;;;5029317;28;20104;-81
2021/07/14 07:51:06;;;;;;;6.47;2.50;;;16.20;1.00;;;;;;5031121;28;20116;-83
2021/07/14 07:53:32;;;;;;;2.30;1.77;;;16.30;1.00;;;;;;5030887;28;20029;-81
2021/07/14 07:55:58;;;;;;;1.50;1.33;;;16.00;1.00;;;;;;5032780;28;20030;-85
2021/07/14 07:58:24;;;;;;;9.38;1.77;;;16.20;1.00;;;;;;5029302;28;20120;-80
2021/07/14 08:00:50;;;;;;;2.13;1.73;;;16.40;1.00;;;;;;5030274;28;20116;-84
2021/07/14 08:03:16;;;;;;;2.63;1.42;;;16.60;1.00;;;;;;5027304;28;20034;-84
2021/07/14 08:05:42;;;;;;;5.97;2.63;;;16.60;1.00;;;;;;5030740;28;20076;-85
2021/07/14 08:08:08;;;;;;;2.42;1.83;;;16.60;1.00;;;;;;5030024;28;20036;-85
2021/07/14 08:10:34;;;;;;;1.45;1.35;;;16.60;1.00;;;;;;5029591;28;20485;-85
2021/07/14 08:12:59;;;;;;;1.50;1.40;;;16.80;1.00;;;;;;5030738;28;20026;-86
2021/07/14 08:15:25;;;;;;;1.52;1.33;;;16.60;1.00;;;;;;5030719;28;20490;-86
2021/07/14 08:17:51;;;;;;;1.85;1.50;;;16.50;1.00;;;;;;5030857;28;20032;-85
2021/07/14 08:20:17;;;;;;;1.40;1.25;;;16.90;1.00;;;;;;5029290;28;20560;-85
2021/07/14 08:22:43;;;;;;;1.70;1.23;;;16.70;1.00;;;;;;5032281;28;20044;-84
2021/07/14 08:25:11;;;;;;;1.67;1.58;;;16.50;1.00;;;;;;5029042;28;20039;-85
2021/07/14 08:27:38;;;;;;;2.60;1.77;;;16.50;1.00;;;;;;5028866;28;20466;-85
2021/07/14 08:30:06;;;;;;;2.42;1.50;;;16.70;1.00;;;;;;5029153;28;20013;-85
2021/07/14 08:32:32;;;;;;;2.50;1.65;;;16.90;1.00;;;;;;5030362;28;20079;-85
2021/07/14 08:34:58;;;;;;;2.15;1.73;;;16.90;1.00;;;;;;5031273;28;20029;-85
2021/07/14 08:37:25;;;;;;;2.80;1.88;;;17.00;1.00;;;;;;5030222;28;20429;-85
2021/07/14 08:39:52;;;;;;;3.17;1.63;;;17.20;1.00;;;;;;5028384;28;20030;-85
2021/07/14 08:42:20;;;;;;;2.65;1.58;;;17.10;1.00;;;;;;5029976;28;20033;-84
2021/07/14 08:44:46;;;;;;;1.73;1.60;;;17.20;1.00;;;;;;5029749;28;20505;-86
2021/07/14 08:47:12;;;;;;;4.35;1.77;;;17.10;1.00;;;;;;5031735;28;20026;-86
2021/07/14 08:49:39;;;;;;;2.83;1.98;;;17.20;1.00;;;;;;5029908;28;20389;-86
2021/07/14 08:52:05;;;;;;;2.85;1.70;;;17.30;1.00;;;;;;5029913;28;20037;-86
2021/07/14 08:54:31;;;;;;;3.22;1.67;;;17.40;1.00;;;;;;5030412;28;20547;-85
2021/07/14 08:56:57;;;;;;;2.95;1.70;;;17.30;1.00;;;;;;5028706;28;20100;-85
2021/07/14 08:59:23;;;;;;;4.93;1.90;;;17.20;1.00;;;;;;5030430;28;20029;-85
2021/07/14 09:01:49;;;;;;;1.70;1.60;;;17.20;1.00;;;;;;5025249;28;20041;-85
2021/07/14 09:04:15;;;;;;;1.52;1.42;;;17.20;1.00;;;;;;5026369;28;20116;-85
2021/07/14 09:06:41;;;;;;;2.00;1.60;;;17.30;1.00;;;;;;5028100;28;20079;-85
2021/07/14 09:09:07;;;;;;;2.33;1.60;;;17.30;1.00;;;;;;5029850;28;20021;-85
2021/07/14 09:11:57;;;;;;;2.50;1.73;;;17.30;1.00;;;;;;5028606;28;20021;-85
2021/07/14 09:14:34;;;;;;;1.73;1.60;;;17.30;1.00;;;;;;5026659;28;20025;-85
2021/07/14 09:17:19;;;;;;;2.45;1.92;;;17.40;1.00;;;;;;5029185;28;20017;-85
2021/07/14 09:19:45;;;;;;;2.15;1.40;;;17.50;1.00;;;;;;5030967;28;20037;-85
2021/07/14 09:22:23;;;;;;;1.80;1.60;;;17.40;1.00;;;;;;5029985;28;20099;-85
2021/07/14 09:24:50;;;;;;;3.90;1.83;;;17.50;1.00;;;;;;5029518;28;20022;-86
2021/07/14 09:27:18;;;;;;;1.58;1.40;;;17.70;1.00;;;;;;5027872;28;20033;-84
2021/07/14 09:30:10;;;;;;;3.60;1.60;;;17.60;1.00;;;;;;5027556;28;20453;-85
2021/07/14 09:33:06;;;;;;;2.90;1.67;;;17.40;1.00;;;;;;5028932;28;20124;-85
2021/07/14 09:35:38;;;;;;;3.80;1.55;;;17.60;1.00;;;;;;5019554;28;20042;-85
2021/07/14 09:38:27;;;;;;;1.35;1.25;;;17.80;1.00;;;;;;5021273;28;20100;-85
2021/07/14 09:41:04;;;;;;;2.85;1.50;;;17.70;1.00;;;;;;5029553;28;20535;-86
2021/07/14 09:43:33;;;;;;;1.30;1.00;;;17.80;1.00;;;;;;5029216;28;20104;-85
2021/07/14 09:46:07;;;;;;;1.60;1.40;;;17.90;1.00;;;;;;5029208;28;20029;-86
2021/07/14 09:48:40;;;;;;;1.48;1.15;;;17.70;1.00;;;;;;5028316;28;20097;-86
2021/07/14 09:51:12;;;;;;;1.20;1.10;;;17.60;1.00;;;;;;5029830;28;20048;-86
2021/07/14 09:53:49;;;;;;;0.80;0.80;;;17.30;1.00;;;;;;5017055;28;20025;-86
2021/07/14 09:56:15;;;;;;;1.63;1.10;;;17.50;1.00;;;;;;5025637;28;20056;-86
2021/07/14 09:58:41;;;;;;;0.88;0.70;;;17.80;1.00;;;;;;5018428;28;20105;-86
2021/07/14 10:01:11;;;;;;;0.60;0.60;;;18.00;1.00;;;;;;5026048;28;20133;-86
2021/07/14 10:03:38;;;;;;;2.20;0.90;;;17.90;1.00;;;;;;5028013;28;20084;-86
2021/07/14 10:06:14;;;;;;;0.85;0.80;;;17.90;1.00;;;;;;5031133;28;20068;-86
2021/07/14 10:08:45;;;;;;;1.65;1.00;;;18.10;1.00;;;;;;5017993;28;20481;-86
2021/07/14 10:11:11;;;;;;;0.80;0.80;;;18.20;1.00;;;;;;5029295;28;20114;-85
2021/07/14 10:13:38;;;;;;;0.85;0.80;;;18.30;1.00;;;;;;5031219;28;20052;-85
2021/07/14 10:16:06;;;;;;;0.70;0.70;;;18.20;1.00;;;;;;5021924;28;20029;-87
2021/07/14 10:18:32;;;;;;;1.13;0.80;;;18.10;1.00;;;;;;5027922;28;20427;-86
2021/07/14 10:21:03;;;;;;;1.00;0.80;;;18.10;1.00;;;;;;5030549;28;20049;-87
2021/07/14 10:23:30;;;;;;;0.93;0.90;;;18.30;1.00;;;;;;5032720;28;20040;-86
2021/07/14 10:25:58;;;;;;;2.75;1.00;;;18.30;1.00;;;;;;5034718;28;20541;-86
2021/07/14 10:28:24;;;;;;;2.47;1.15;;;18.30;1.00;;;;;;5030600;28;20049;-87
2021/07/14 10:30:52;;;;;;;1.67;1.00;;;18.20;1.00;;;;;;5031504;28;20025;-87
2021/07/14 10:33:19;;;;;;;1.45;1.23;;;18.00;1.00;;;;;;5030763;28;20500;-87
2021/07/14 10:35:49;;;;;;;0.93;0.90;;;17.80;1.00;;;;;;5031477;28;20394;-86
2021/07/14 10:38:35;;;;;;;0.80;0.80;;;17.80;1.00;;;;;;5032671;28;20029;-86
2021/07/14 10:41:01;;;;;;;0.80;0.80;;;17.50;1.00;;;;;;5032166;28;20111;-86
2021/07/14 10:43:31;;;;;;;0.80;0.80;;;17.80;1.00;;;;;;5032498;28;20108;-89
2021/07/14 10:45:56;;;;;;;2.47;1.50;;;17.90;1.00;;;;;;5035586;28;20497;-89
2021/07/14 10:48:24;;;;;;;2.47;1.60;;;18.00;1.00;;;;;;5036243;28;20091;-86
2021/07/14 10:50:52;;;;;;;2.08;1.40;;;18.00;1.00;;;;;;5034651;28;20036;-86
2021/07/14 10:53:18;;;;;;;1.35;0.93;;;18.00;1.00;;;;;;5033923;28;20370;-87
2021/07/14 10:55:45;;;;;;;1.02;0.75;;;17.70;1.00;;;;;;5033793;28;20100;-87
2021/07/14 10:58:21;;;;;;;3.78;1.10;;;17.60;1.00;;;;;;5032206;28;20528;-88
2021/07/14 11:00:47;;;;;;;1.92;0.90;;;17.70;1.00;;;;;;5030719;28;20048;-87
2021/07/14 11:03:31;;;;;;;0.68;0.60;;;17.80;1.00;;;;;;5030296;28;20068;-89
2021/07/14 11:05:58;;;;;;;0.75;0.70;;;17.90;1.00;;;;;;5032405;28;20071;-86
2021/07/14 11:08:40;;;;;;;1.88;0.60;;;18.00;1.00;;;;;;5032979;28;20082;-89
2021/07/14 11:11:06;;;;;;;1.10;1.00;;;18.20;1.00;;;;;;5031877;28;20040;-88
2021/07/14 11:13:33;;;;;;;1.00;0.90;;;18.20;1.00;;;;;;5032018;28;20025;-88
2021/07/14 11:16:31;;;;;;;0.80;0.80;;;18.20;1.00;;;;;;5031793;28;20477;-87
2021/07/14 11:19:04;;;;;;;0.90;0.73;;;18.10;1.00;;;;;;5030336;28;20045;-90
2021/07/14 11:21:48;;;;;;;0.75;0.75;;;18.00;1.00;;;;;;5031580;28;20052;-89
2021/07/14 11:24:36;;;;;;;0.63;0.63;;;18.10;1.00;;;;;;5031618;28;20033;-87
2021/07/14 11:27:26;;;;;;;0.82;0.73;;;18.30;1.00;;;;;;5031828;28;20038;-88
2021/07/14 11:30:07;;;;;;;2.28;0.90;;;18.30;1.00;;;;;;5018343;28;20025;-89
2021/07/14 11:32:39;;;;;;;2.20;0.90;;;18.50;1.00;;;;;;5031292;28;20552;-86
2021/07/14 11:35:13;;;;;;;1.35;0.98;;;18.60;1.00;;;;;;5026510;28;20041;-87
2021/07/14 11:37:44;;;;;;;1.58;1.05;;;18.60;1.00;;;;;;5025876;28;20053;-87
2021/07/14 11:40:18;;;;;;;3.75;1.13;;;18.60;1.00;;;;;;5024147;28;20495;-86
2021/07/14 11:42:56;;;;;;;1.20;1.02;;;18.60;1.00;;;;;;5027476;28;20529;-85
2021/07/14 11:45:34;;;;;;;1.42;1.00;;;18.50;1.00;;;;;;5027956;28;20033;-87
2021/07/14 11:48:02;;;;;;;1.08;0.90;;;18.80;1.00;;;;;;5028977;28;20030;-87
2021/07/14 11:50:45;;;;;;;1.70;1.15;;;18.70;1.00;;;;;;5030571;28;20041;-90
2021/07/14 11:53:41;;;;;;;1.17;1.08;;;18.80;1.00;;;;;;5028663;28;20025;-88
2021/07/14 11:56:14;;;;;;;2.35;1.02;;;18.80;1.00;;;;;;5028417;28;20037;-89
2021/07/14 11:58:50;;;;;;;1.38;1.27;;;18.90;1.00;;;;;;5028912;28;20029;-89
2021/07/14 12:01:22;;;;;;;1.33;1.10;;;19.00;1.00;;;;;;5029918;28;20101;-89
2021/07/14 12:04:00;;;;;;;1.23;0.98;;;19.10;1.00;;;;;;5031489;28;20473;-89
2021/07/14 12:06:40;;;;;;;2.08;1.30;;;19.20;1.00;;;;;;5029602;28;20133;-89
2021/07/14 12:09:12;;;;;;;1.00;1.00;;;19.30;1.00;;;;;;5029945;28;20517;-88
2021/07/14 12:11:49;;;;;;;1.42;0.90;;;19.50;1.00;;;;;;5028146;28;20502;-89
2021/07/14 12:14:15;;;;;;;1.20;1.10;;;19.40;1.00;;;;;;5027326;28;20041;-88
2021/07/14 12:16:48;;;;;;;1.60;1.50;;;19.40;1.00;;;;;;5032031;28;20032;-88
2021/07/14 12:19:21;;;;;;;2.22;1.40;;;19.30;1.00;;;;;;5028376;28;20552;-89
2021/07/14 12:21:47;;;;;;;1.95;1.60;;;19.00;1.00;;;;;;5028723;28;20041;-88
2021/07/14 12:24:33;;;;;;;1.13;1.13;;;19.00;1.00;;;;;;5031184;28;20029;-89
2021/07/14 12:27:15;;;;;;;3.38;1.20;;;19.30;1.00;;;;;;5023442;28;20040;-88
2021/07/14 12:29:42;;;;;;;1.83;1.30;;;19.40;1.00;;;;;;5015851;28;20478;-89
2021/07/14 12:32:08;;;;;;;2.78;1.50;;;19.60;1.00;;;;;;5031886;28;20494;-89
2021/07/14 12:34:35;;;;;;;2.97;1.42;;;19.50;1.00;;;;;;5031108;28;20036;-89
2021/07/14 12:37:02;;;;;;;1.60;1.50;;;19.20;1.00;;;;;;5027975;28;20025;-89
2021/07/14 12:39:30;;;;;;;2.03;1.50;;;19.20;1.00;;;;;;5030992;28;20116;-88
2021/07/14 12:41:59;;;;;;;1.77;1.67;;;19.10;1.00;;;;;;5028619;28;20056;-88
2021/07/14 12:44:25;;;;;;;1.30;1.20;;;19.10;1.00;;;;;;5030928;28;20434;-88
2021/07/14 12:46:51;;;;;;;1.30;1.20;;;19.00;1.00;;;;;;5028887;28;20025;-91
2021/07/14 12:49:23;;;;;;;1.45;1.35;;;18.90;1.00;;;;;;5030468;28;20036;-86
2021/07/14 12:52:02;;;;;;;2.08;1.90;;;18.80;1.00;;;;;;5026298;28;20074;-90
2021/07/14 12:54:27;;;;;;;1.63;1.50;;;18.60;1.00;;;;;;5025246;28;20088;-89
2021/07/14 12:56:53;;;;;;;1.33;1.23;;;18.60;1.00;;;;;;5027783;28;20030;-89
2021/07/14 12:59:20;;;;;;;1.40;1.30;;;18.40;1.00;;;;;;5030141;28;20033;-92
2021/07/14 13:01:46;;;;;;;1.60;1.50;;;18.40;1.00;;;;;;5030295;28;20561;-90
2021/07/14 13:04:16;;;;;;;2.35;1.33;;;18.30;1.00;;;;;;5029930;28;20025;-90
2021/07/14 13:06:42;;;;;;;1.58;1.42;;;18.20;1.00;;;;;;5029249;28;20056;-91
2021/07/14 13:09:11;;;;;;;1.73;1.63;;;18.40;1.00;;;;;;5028664;28;20533;-90
2021/07/14 13:11:38;;;;;;;1.73;1.63;;;18.50;1.00;;;;;;5027314;28;20605;-90
2021/07/14 13:14:06;;;;;;;1.55;1.45;;;18.50;1.00;;;;;;5030845;28;20410;-90